KSLE/SLE METAR and TAF weather

Enter ICAO airport designator
Station Type Date Time Source
KSLE METAR 2019/08/19 01:56 UTC NOAA

KSLE 190156Z 04006KT 10SM CLR 26/12 A2981 RMK AO2 SLP092 T02610117


Station Type Date Time Source
KSLE Decoded METAR 2019/08/19 01:56 UTC NOAA

Station name not available
Aug 18, 2019 - 09:56 PM EDT / 2019.08.19 0156 UTC
Wind: from the NE (040 degrees) at 7 MPH (6 KT):0
Visibility: 10 mile(s):0
Sky conditions: clear
Temperature: 79.0 F (26.1 C)
Dew Point: 53.1 F (11.7 C)
Relative Humidity: 40%
Pressure (altimeter): 29.81 in. Hg (1009 hPa)
ob: KSLE 190156Z 04006KT 10SM CLR 26/12 A2981 RMK AO2 SLP092 T02610117
cycle: 2

Station Type Date Time Source
KSLE TAF 2019/08/18 18:42 UTC NOAA

KSLE 181738Z 1818/1918 35005KT P6SM BKN026
FM181900 36008KT P6SM SCT040
FM182200 35009KT P6SM SKC
FM190300 03004KT P6SM SKC
FM191200 01005KT P6SM BKN025 OVC035

Example: see airport list